sensor_id;sensor_type;location;lat;lon;timestamp;pressure;altitude;pressure_sealevel;temperature;humidity
23281;BME280;11809;56.390;-3.266;2023-05-22T00:01:29;102071.53;;;17.85;62.10
23281;BME280;11809;56.390;-3.266;2023-05-22T00:03:58;102069.81;;;17.84;61.94
23281;BME280;11809;56.390;-3.266;2023-05-22T00:06:25;102067.09;;;17.85;61.94
23281;BME280;11809;56.390;-3.266;2023-05-22T00:08:53;102068.09;;;17.83;62.02
23281;BME280;11809;56.390;-3.266;2023-05-22T00:11:21;102067.22;;;17.82;61.97
23281;BME280;11809;56.390;-3.266;2023-05-22T00:13:48;102068.25;;;17.80;62.02
23281;BME280;11809;56.390;-3.266;2023-05-22T00:16:15;102070.91;;;17.80;61.95
23281;BME280;11809;56.390;-3.266;2023-05-22T00:18:42;102066.50;;;17.79;62.04
23281;BME280;11809;56.390;-3.266;2023-05-22T00:21:10;102059.44;;;17.78;61.92
23281;BME280;11809;56.390;-3.266;2023-05-22T00:23:37;102057.75;;;17.77;62.14
23281;BME280;11809;56.390;-3.266;2023-05-22T00:26:04;102062.97;;;17.78;61.90
23281;BME280;11809;56.390;-3.266;2023-05-22T00:28:31;102060.31;;;17.78;62.22
23281;BME280;11809;56.390;-3.266;2023-05-22T00:30:58;102055.09;;;17.77;62.08
23281;BME280;11809;56.390;-3.266;2023-05-22T00:33:25;102050.69;;;17.76;62.10
23281;BME280;11809;56.390;-3.266;2023-05-22T00:35:53;102055.09;;;17.77;62.15
23281;BME280;11809;56.390;-3.266;2023-05-22T00:38:31;102057.88;;;17.74;62.07
23281;BME280;11809;56.390;-3.266;2023-05-22T00:40:59;102064.94;;;17.75;62.09
23281;BME280;11809;56.390;-3.266;2023-05-22T00:43:27;102063.97;;;17.76;62.12
23281;BME280;11809;56.390;-3.266;2023-05-22T00:45:54;102050.81;;;17.73;62.09
23281;BME280;11809;56.390;-3.266;2023-05-22T00:48:22;102055.22;;;17.74;62.13
23281;BME280;11809;56.390;-3.266;2023-05-22T00:50:51;102051.69;;;17.73;61.96
23281;BME280;11809;56.390;-3.266;2023-05-22T00:53:20;102047.25;;;17.74;62.17
23281;BME280;11809;56.390;-3.266;2023-05-22T00:55:47;102041.94;;;17.74;62.16
23281;BME280;11809;56.390;-3.266;2023-05-22T00:58:18;102039.34;;;17.72;62.27
23281;BME280;11809;56.390;-3.266;2023-05-22T01:00:45;102034.03;;;17.72;62.06
23281;BME280;11809;56.390;-3.266;2023-05-22T01:03:13;102030.50;;;17.72;62.12
23281;BME280;11809;56.390;-3.266;2023-05-22T01:05:42;102033.16;;;17.72;62.10
23281;BME280;11809;56.390;-3.266;2023-05-22T01:08:09;102031.44;;;17.71;61.90
23281;BME280;11809;56.390;-3.266;2023-05-22T01:10:38;102032.31;;;17.71;62.03
23281;BME280;11809;56.390;-3.266;2023-05-22T01:15:48;102032.31;;;17.71;61.90
23281;BME280;11809;56.390;-3.266;2023-05-22T01:18:36;102029.72;;;17.70;62.00
23281;BME280;11809;56.390;-3.266;2023-05-22T01:32:12;102035.88;;;17.70;62.12
23281;BME280;11809;56.390;-3.266;2023-05-22T01:34:43;102043.03;;;17.70;61.94
23281;BME280;11809;56.390;-3.266;2023-05-22T01:37:12;102035.88;;;17.70;61.90
23281;BME280;11809;56.390;-3.266;2023-05-22T01:39:40;102027.06;;;17.70;62.05
23281;BME280;11809;56.390;-3.266;2023-05-22T01:42:09;102025.34;;;17.69;61.94
23281;BME280;11809;56.390;-3.266;2023-05-22T01:44:36;102029.72;;;17.70;61.84
23281;BME280;11809;56.390;-3.266;2023-05-22T01:47:03;102025.38;;;17.67;61.99
23281;BME280;11809;56.390;-3.266;2023-05-22T01:49:32;102033.31;;;17.69;61.91
23281;BME280;11809;56.390;-3.266;2023-05-22T01:52:14;102024.56;;;17.67;61.83
23281;BME280;11809;56.390;-3.266;2023-05-22T01:54:54;102025.38;;;17.67;62.14
23281;BME280;11809;56.390;-3.266;2023-05-22T01:57:31;102029.88;;;17.67;61.81
23281;BME280;11809;56.390;-3.266;2023-05-22T02:00:08;102024.56;;;17.67;61.91
23281;BME280;11809;56.390;-3.266;2023-05-22T02:02:42;102031.56;;;17.68;62.03
23281;BME280;11809;56.390;-3.266;2023-05-22T02:05:11;102020.94;;;17.68;62.10
23281;BME280;11809;56.390;-3.266;2023-05-22T02:07:41;102028.88;;;17.69;62.04
23281;BME280;11809;56.390;-3.266;2023-05-22T02:10:09;102024.41;;;17.70;61.97
23281;BME280;11809;56.390;-3.266;2023-05-22T02:12:37;102015.63;;;17.68;62.05
23281;BME280;11809;56.390;-3.266;2023-05-22T02:15:06;102021.75;;;17.70;61.81
23281;BME280;11809;56.390;-3.266;2023-05-22T02:17:38;102006.72;;;17.69;61.94
23281;BME280;11809;56.390;-3.266;2023-05-22T02:20:13;101998.81;;;17.67;61.93
23281;BME280;11809;56.390;-3.266;2023-05-22T02:22:41;102006.63;;;17.70;62.04
23281;BME280;11809;56.390;-3.266;2023-05-22T02:25:13;102003.16;;;17.70;61.83
23281;BME280;11809;56.390;-3.266;2023-05-22T02:27:44;102002.19;;;17.71;62.11
23281;BME280;11809;56.390;-3.266;2023-05-22T02:30:13;101995.16;;;17.70;62.09
23281;BME280;11809;56.390;-3.266;2023-05-22T02:32:40;102001.31;;;17.70;62.10
23281;BME280;11809;56.390;-3.266;2023-05-22T02:35:08;101998.75;;;17.69;61.84
23281;BME280;11809;56.390;-3.266;2023-05-22T02:37:36;102000.50;;;17.70;61.79
23281;BME280;11809;56.390;-3.266;2023-05-22T02:40:04;101992.56;;;17.68;61.94
23281;BME280;11809;56.390;-3.266;2023-05-22T02:42:35;101996.97;;;17.69;61.86
23281;BME280;11809;56.390;-3.266;2023-05-22T02:45:02;102001.41;;;17.69;61.74
23281;BME280;11809;56.390;-3.266;2023-05-22T02:47:30;102004.84;;;17.71;61.81
23281;BME280;11809;56.390;-3.266;2023-05-22T02:49:57;101998.59;;;17.72;62.02
23281;BME280;11809;56.390;-3.266;2023-05-22T02:52:24;101995.84;;;17.73;62.04
23281;BME280;11809;56.390;-3.266;2023-05-22T02:54:51;102003.94;;;17.72;61.97
23281;BME280;11809;56.390;-3.266;2023-05-22T02:57:18;101996.81;;;17.72;61.94
23281;BME280;11809;56.390;-3.266;2023-05-22T02:59:45;101995.09;;;17.71;61.82
23281;BME280;11809;56.390;-3.266;2023-05-22T03:02:12;101993.19;;;17.73;61.84
23281;BME280;11809;56.390;-3.266;2023-05-22T03:04:40;101992.34;;;17.73;61.94
23281;BME280;11809;56.390;-3.266;2023-05-22T03:07:08;101992.34;;;17.73;61.81
23281;BME280;11809;56.390;-3.266;2023-05-22T03:09:35;101994.06;;;17.74;61.89
23281;BME280;11809;56.390;-3.266;2023-05-22T03:12:02;101997.66;;;17.73;61.70
23281;BME280;11809;56.390;-3.266;2023-05-22T03:14:30;101990.53;;;17.73;61.77
23281;BME280;11809;56.390;-3.266;2023-05-22T03:16:57;101989.63;;;17.74;61.78
23281;BME280;11809;56.390;-3.266;2023-05-22T03:19:25;101991.31;;;17.75;61.63
23281;BME280;11809;56.390;-3.266;2023-05-22T03:21:52;101998.38;;;17.76;61.74
23281;BME280;11809;56.390;-3.266;2023-05-22T03:24:19;102006.44;;;17.75;61.77
23281;BME280;11809;56.390;-3.266;2023-05-22T03:26:46;102002.97;;;17.73;61.77
23281;BME280;11809;56.390;-3.266;2023-05-22T03:29:13;102009.00;;;17.76;61.75
23281;BME280;11809;56.390;-3.266;2023-05-22T03:31:41;102009.88;;;17.77;61.88
23281;BME280;11809;56.390;-3.266;2023-05-22T03:34:08;102009.00;;;17.76;61.70
23281;BME280;11809;56.390;-3.266;2023-05-22T03:36:35;102002.81;;;17.76;61.59
23281;BME280;11809;56.390;-3.266;2023-05-22T03:39:03;102007.28;;;17.75;61.54
23281;BME280;11809;56.390;-3.266;2023-05-22T03:41:30;102001.13;;;17.75;61.59
23281;BME280;11809;56.390;-3.266;2023-05-22T03:43:57;101994.06;;;17.74;61.68
23281;BME280;11809;56.390;-3.266;2023-05-22T03:46:24;101997.59;;;17.74;61.52
23281;BME280;11809;56.390;-3.266;2023-05-22T03:48:52;102002.91;;;17.74;61.88
23281;BME280;11809;56.390;-3.266;2023-05-22T03:51:19;102001.19;;;17.73;61.48
23281;BME280;11809;56.390;-3.266;2023-05-22T03:53:46;101992.34;;;17.73;61.70
23281;BME280;11809;56.390;-3.266;2023-05-22T03:56:13;101992.34;;;17.73;61.64
23281;BME280;11809;56.390;-3.266;2023-05-22T03:58:40;101989.69;;;17.73;61.51
23281;BME280;11809;56.390;-3.266;2023-05-22T04:01:07;102002.97;;;17.73;61.83
23281;BME280;11809;56.390;-3.266;2023-05-22T04:03:36;101996.81;;;17.72;61.37
23281;BME280;11809;56.390;-3.266;2023-05-22T04:06:03;101999.53;;;17.71;61.55
23281;BME280;11809;56.390;-3.266;2023-05-22T04:08:31;102001.25;;;17.72;61.55
23281;BME280;11809;56.390;-3.266;2023-05-22T04:10:58;101994.22;;;17.71;61.67
23281;BME280;11809;56.390;-3.266;2023-05-22T04:13:25;101990.63;;;17.72;61.49
23281;BME280;11809;56.390;-3.266;2023-05-22T04:15:53;102002.03;;;17.74;61.62
23281;BME280;11809;56.390;-3.266;2023-05-22T04:18:20;102002.81;;;17.76;61.75
23281;BME280;11809;56.390;-3.266;2023-05-22T04:20:47;102001.13;;;17.75;61.63
23281;BME280;11809;56.390;-3.266;2023-05-22T04:23:17;101999.25;;;17.77;61.65
23281;BME280;11809;56.390;-3.266;2023-05-22T04:25:44;101993.19;;;17.73;61.58
23281;BME280;11809;56.390;-3.266;2023-05-22T04:28:13;101991.91;;;17.82;61.97
23281;BME280;11809;56.390;-3.266;2023-05-22T04:30:43;101975.16;;;17.80;61.60
23281;BME280;11809;56.390;-3.266;2023-05-22T04:33:10;101978.13;;;17.74;61.63
23281;BME280;11809;56.390;-3.266;2023-05-22T04:35:38;101987.66;;;17.78;61.95
23281;BME280;11809;56.390;-3.266;2023-05-22T04:38:08;102001.38;;;17.87;61.83
23281;BME280;11809;56.390;-3.266;2023-05-22T04:40:36;101998.78;;;17.86;61.73
23281;BME280;11809;56.390;-3.266;2023-05-22T04:43:04;102000.47;;;17.88;61.91
23281;BME280;11809;56.390;-3.266;2023-05-22T04:45:31;101999.66;;;17.86;61.92
23281;BME280;11809;56.390;-3.266;2023-05-22T04:47:58;102002.16;;;17.89;61.77
23281;BME280;11809;56.390;-3.266;2023-05-22T04:50:28;102012.75;;;17.91;61.77
23281;BME280;11809;56.390;-3.266;2023-05-22T04:52:58;102010.91;;;17.91;61.87
23281;BME280;11809;56.390;-3.266;2023-05-22T04:55:26;102009.59;;;17.83;61.35
23281;BME280;11809;56.390;-3.266;2023-05-22T04:57:53;102014.56;;;17.72;60.56
23281;BME280;11809;56.390;-3.266;2023-05-22T05:00:20;102020.25;;;17.64;60.09
23281;BME280;11809;56.390;-3.266;2023-05-22T05:02:52;102014.59;;;17.51;60.69
23281;BME280;11809;56.390;-3.266;2023-05-22T05:05:19;102006.28;;;17.59;61.12
23281;BME280;11809;56.390;-3.266;2023-05-22T05:07:47;102012.19;;;17.66;61.35
23281;BME280;11809;56.390;-3.266;2023-05-22T05:10:15;102007.59;;;17.69;61.71
23281;BME280;11809;56.390;-3.266;2023-05-22T05:12:43;102017.06;;;17.75;61.81
23281;BME280;11809;56.390;-3.266;2023-05-22T05:15:10;102023.81;;;17.82;62.31
23281;BME280;11809;56.390;-3.266;2023-05-22T05:17:37;102019.22;;;17.85;61.88
23281;BME280;11809;56.390;-3.266;2023-05-22T05:20:05;102017.25;;;17.89;62.15
23281;BME280;11809;56.390;-3.266;2023-05-22T05:22:33;102019.75;;;17.92;62.68
23281;BME280;11809;56.390;-3.266;2023-05-22T05:25:00;102010.88;;;17.93;62.60
23281;BME280;11809;56.390;-3.266;2023-05-22T05:27:27;102014.31;;;17.95;62.51
23281;BME280;11809;56.390;-3.266;2023-05-22T05:29:54;102011.56;;;17.96;62.92
23281;BME280;11809;56.390;-3.266;2023-05-22T05:32:21;102019.19;;;18.04;62.88
23281;BME280;11809;56.390;-3.266;2023-05-22T05:34:49;102015.41;;;18.08;62.69
23281;BME280;11809;56.390;-3.266;2023-05-22T05:37:17;102016.28;;;18.08;62.60
23281;BME280;11809;56.390;-3.266;2023-05-22T05:39:44;102006.50;;;18.09;62.47
23281;BME280;11809;56.390;-3.266;2023-05-22T05:42:11;102008.22;;;18.10;62.67
23281;BME280;11809;56.390;-3.266;2023-05-22T05:44:38;102008.06;;;18.13;62.37
23281;BME280;11809;56.390;-3.266;2023-05-22T05:47:05;102016.00;;;18.14;62.27
23281;BME280;11809;56.390;-3.266;2023-05-22T05:49:33;102017.69;;;18.15;62.32
23281;BME280;11809;56.390;-3.266;2023-05-22T05:52:01;102013.22;;;18.16;62.37
23281;BME280;11809;56.390;-3.266;2023-05-22T05:54:28;102013.09;;;18.19;62.37
23281;BME280;11809;56.390;-3.266;2023-05-22T05:56:55;102021.84;;;18.21;62.13
23281;BME280;11809;56.390;-3.266;2023-05-22T05:59:22;102034.22;;;18.22;62.12
23281;BME280;11809;56.390;-3.266;2023-05-22T06:01:50;102025.28;;;18.23;62.22
23281;BME280;11809;56.390;-3.266;2023-05-22T06:04:17;102034.06;;;18.25;62.19
23281;BME280;11809;56.390;-3.266;2023-05-22T06:06:44;102033.13;;;18.26;62.24
23281;BME280;11809;56.390;-3.266;2023-05-22T06:09:13;102029.59;;;18.26;61.84
23281;BME280;11809;56.390;-3.266;2023-05-22T06:11:40;102029.44;;;18.29;61.94
23281;BME280;11809;56.390;-3.266;2023-05-22T06:14:07;102038.22;;;18.31;61.89
23281;BME280;11809;56.390;-3.266;2023-05-22T06:16:35;102033.59;;;18.34;62.09
23281;BME280;11809;56.390;-3.266;2023-05-22T06:19:03;102031.75;;;18.36;61.90
23281;BME280;11809;56.390;-3.266;2023-05-22T06:21:30;102022.81;;;18.37;61.87
23281;BME280;11809;56.390;-3.266;2023-05-22T06:23:57;102019.38;;;18.35;62.47
23281;BME280;11809;56.390;-3.266;2023-05-22T06:26:25;102020.91;;;18.39;61.99
23281;BME280;11809;56.390;-3.266;2023-05-22T06:28:52;102017.31;;;18.40;61.97
23281;BME280;11809;56.390;-3.266;2023-05-22T06:31:21;102010.97;;;18.43;61.91
23281;BME280;11809;56.390;-3.266;2023-05-22T06:33:48;102011.91;;;18.42;61.80
23281;BME280;11809;56.390;-3.266;2023-05-22T06:36:16;101997.47;;;18.47;61.94
23281;BME280;11809;56.390;-3.266;2023-05-22T06:38:44;102007.53;;;18.41;61.93
23281;BME280;11809;56.390;-3.266;2023-05-22T06:41:15;102013.56;;;18.27;62.66
23281;BME280;11809;56.390;-3.266;2023-05-22T06:43:42;102018.16;;;18.24;62.80
23281;BME280;11809;56.390;-3.266;2023-05-22T06:46:09;102015.50;;;18.24;62.62
23281;BME280;11809;56.390;-3.266;2023-05-22T06:48:36;102014.66;;;18.23;62.96
23281;BME280;11809;56.390;-3.266;2023-05-22T06:51:04;102008.00;;;18.32;62.94
23281;BME280;11809;56.390;-3.266;2023-05-22T06:53:31;102004.78;;;18.42;62.74
23281;BME280;11809;56.390;-3.266;2023-05-22T06:55:58;102001.91;;;18.47;62.71
23281;BME280;11809;56.390;-3.266;2023-05-22T06:58:25;102006.16;;;18.51;62.77
23281;BME280;11809;56.390;-3.266;2023-05-22T07:00:53;102002.47;;;18.53;62.22
23281;BME280;11809;56.390;-3.266;2023-05-22T07:03:21;102012.09;;;18.56;62.09
23281;BME280;11809;56.390;-3.266;2023-05-22T07:05:49;102011.09;;;18.58;61.82
23281;BME280;11809;56.390;-3.266;2023-05-22T07:08:17;102013.69;;;18.60;61.69
23281;BME280;11809;56.390;-3.266;2023-05-22T07:10:44;102014.38;;;18.63;62.43
23281;BME280;11809;56.390;-3.266;2023-05-22T07:13:11;102020.41;;;18.67;61.85
23281;BME280;11809;56.390;-3.266;2023-05-22T07:15:39;102018.50;;;18.69;61.64
23281;BME280;11809;56.390;-3.266;2023-05-22T07:18:06;102026.75;;;18.64;60.85
23281;BME280;11809;56.390;-3.266;2023-05-22T07:20:37;102025.41;;;18.39;58.88
23281;BME280;11809;56.390;-3.266;2023-05-22T07:23:05;102025.94;;;18.28;58.95
23281;BME280;11809;56.390;-3.266;2023-05-22T07:25:33;102020.97;;;18.21;58.40
23281;BME280;11809;56.390;-3.266;2023-05-22T07:28:00;102025.47;;;18.20;58.77
23281;BME280;11809;56.390;-3.266;2023-05-22T07:30:29;102034.06;;;18.25;59.11
23281;BME280;11809;56.390;-3.266;2023-05-22T07:32:57;102026.56;;;18.33;59.78
23281;BME280;11809;56.390;-3.266;2023-05-22T07:35:24;102033.88;;;18.47;60.96
23281;BME280;11809;56.390;-3.266;2023-05-22T07:37:51;102039.75;;;18.53;60.77
23281;BME280;11809;56.390;-3.266;2023-05-22T07:40:18;102034.19;;;18.58;60.48
23281;BME280;11809;56.390;-3.266;2023-05-22T07:42:46;102035.81;;;18.60;60.25
23281;BME280;11809;56.390;-3.266;2023-05-22T07:45:13;102042.88;;;18.61;60.24
23281;BME280;11809;56.390;-3.266;2023-05-22T07:47:40;102050.09;;;18.59;60.23
23281;BME280;11809;56.390;-3.266;2023-05-22T07:50:07;102053.78;;;18.57;60.47
23281;BME280;11809;56.390;-3.266;2023-05-22T07:52:35;102052.00;;;18.57;60.31
23281;BME280;11809;56.390;-3.266;2023-05-22T07:55:02;102057.31;;;18.57;60.45
23281;BME280;11809;56.390;-3.266;2023-05-22T07:57:29;102059.16;;;18.55;60.40
23281;BME280;11809;56.390;-3.266;2023-05-22T07:59:56;102064.50;;;18.55;60.26
23281;BME280;11809;56.390;-3.266;2023-05-22T08:02:25;102065.34;;;18.56;60.53
23281;BME280;11809;56.390;-3.266;2023-05-22T08:04:53;102070.78;;;18.54;60.67
23281;BME280;11809;56.390;-3.266;2023-05-22T08:07:20;102066.53;;;18.50;60.35
23281;BME280;11809;56.390;-3.266;2023-05-22T08:09:47;102072.91;;;18.29;58.84
23281;BME280;11809;56.390;-3.266;2023-05-22T08:12:16;102076.47;;;18.11;58.37
23281;BME280;11809;56.390;-3.266;2023-05-22T08:14:43;102076.25;;;17.97;57.40
23281;BME280;11809;56.390;-3.266;2023-05-22T08:17:11;102082.59;;;17.94;57.99
23281;BME280;11809;56.390;-3.266;2023-05-22T08:19:38;102076.72;;;17.88;57.76
23281;BME280;11809;56.390;-3.266;2023-05-22T08:22:06;102069.25;;;17.77;57.70
23281;BME280;11809;56.390;-3.266;2023-05-22T08:24:33;102071.97;;;17.76;57.75
23281;BME280;11809;56.390;-3.266;2023-05-22T08:27:01;102077.50;;;17.90;58.09
23281;BME280;11809;56.390;-3.266;2023-05-22T08:29:28;102071.75;;;17.99;58.74
23281;BME280;11809;56.390;-3.266;2023-05-22T08:31:55;102070.41;;;18.07;59.06
23281;BME280;11809;56.390;-3.266;2023-05-22T08:34:24;102080.69;;;18.15;59.15
23281;BME280;11809;56.390;-3.266;2023-05-22T08:36:52;102072.50;;;18.20;59.17
23281;BME280;11809;56.390;-3.266;2023-05-22T08:39:19;102077.66;;;18.23;59.25
23281;BME280;11809;56.390;-3.266;2023-05-22T08:41:47;102079.38;;;18.24;59.50
23281;BME280;11809;56.390;-3.266;2023-05-22T08:44:14;102077.59;;;18.24;59.87
23281;BME280;11809;56.390;-3.266;2023-05-22T08:46:43;102081.16;;;18.23;60.92
23281;BME280;11809;56.390;-3.266;2023-05-22T08:49:12;102071.28;;;18.08;59.14
23281;BME280;11809;56.390;-3.266;2023-05-22T08:51:40;102073.31;;;18.03;58.56
23281;BME280;11809;56.390;-3.266;2023-05-22T08:54:08;102081.91;;;17.91;58.45
23281;BME280;11809;56.390;-3.266;2023-05-22T08:56:38;102083.38;;;17.96;58.35
23281;BME280;11809;56.390;-3.266;2023-05-22T08:59:22;102085.88;;;17.99;58.20
23281;BME280;11809;56.390;-3.266;2023-05-22T09:01:49;102093.47;;;17.90;58.20
23281;BME280;11809;56.390;-3.266;2023-05-22T09:04:18;102074.63;;;17.76;57.85
23281;BME280;11809;56.390;-3.266;2023-05-22T09:06:50;102087.28;;;17.71;58.18
23281;BME280;11809;56.390;-3.266;2023-05-22T09:09:18;102088.22;;;17.70;57.99
23281;BME280;11809;56.390;-3.266;2023-05-22T09:11:45;102090.06;;;17.68;57.94
23281;BME280;11809;56.390;-3.266;2023-05-22T09:14:13;102096.69;;;17.78;58.38
23281;BME280;11809;56.390;-3.266;2023-05-22T09:16:49;102083.88;;;17.67;57.81
23281;BME280;11809;56.390;-3.266;2023-05-22T09:19:18;102084.97;;;17.63;57.65
23281;BME280;11809;56.390;-3.266;2023-05-22T09:21:45;102088.66;;;17.61;57.11
23281;BME280;11809;56.390;-3.266;2023-05-22T09:24:13;102090.53;;;17.59;57.14
23281;BME280;11809;56.390;-3.266;2023-05-22T09:26:41;102082.47;;;17.60;57.39
23281;BME280;11809;56.390;-3.266;2023-05-22T09:29:08;102090.72;;;17.54;56.46
23281;BME280;11809;56.390;-3.266;2023-05-22T09:31:42;102084.56;;;17.52;56.67
23281;BME280;11809;56.390;-3.266;2023-05-22T09:34:10;102090.91;;;17.49;56.63
23281;BME280;11809;56.390;-3.266;2023-05-22T09:36:40;102083.13;;;17.45;56.41
23281;BME280;11809;56.390;-3.266;2023-05-22T09:39:08;102094.78;;;17.42;56.74
23281;BME280;11809;56.390;-3.266;2023-05-22T09:41:38;102088.69;;;17.40;56.43
23281;BME280;11809;56.390;-3.266;2023-05-22T09:44:13;102080.69;;;17.40;56.94
23281;BME280;11809;56.390;-3.266;2023-05-22T09:46:43;102080.63;;;17.42;57.10
23281;BME280;11809;56.390;-3.266;2023-05-22T09:49:11;102079.75;;;17.41;56.92
23281;BME280;11809;56.390;-3.266;2023-05-22T09:51:44;102081.41;;;17.44;57.59
23281;BME280;11809;56.390;-3.266;2023-05-22T09:54:14;102078.84;;;17.42;57.41
23281;BME280;11809;56.390;-3.266;2023-05-22T09:56:43;102074.38;;;17.43;57.58
23281;BME280;11809;56.390;-3.266;2023-05-22T09:59:12;102085.00;;;17.43;57.34
23281;BME280;11809;56.390;-3.266;2023-05-22T10:01:40;102075.22;;;17.43;57.38
23281;BME280;11809;56.390;-3.266;2023-05-22T10:04:11;102088.59;;;17.42;57.35
23281;BME280;11809;56.390;-3.266;2023-05-22T10:06:41;102091.25;;;17.42;57.42
23281;BME280;11809;56.390;-3.266;2023-05-22T10:09:14;102081.41;;;17.44;57.34
23281;BME280;11809;56.390;-3.266;2023-05-22T10:11:46;102075.94;;;17.47;57.49
23281;BME280;11809;56.390;-3.266;2023-05-22T10:14:15;102074.22;;;17.46;57.20
23281;BME280;11809;56.390;-3.266;2023-05-22T10:16:43;102084.06;;;17.44;56.79
23281;BME280;11809;56.390;-3.266;2023-05-22T10:19:11;102075.22;;;17.43;56.87
23281;BME280;11809;56.390;-3.266;2023-05-22T10:21:40;102081.34;;;17.45;57.43
23281;BME280;11809;56.390;-3.266;2023-05-22T10:24:09;102075.16;;;17.45;56.96
23281;BME280;11809;56.390;-3.266;2023-05-22T10:26:37;102086.72;;;17.44;57.11
23281;BME280;11809;56.390;-3.266;2023-05-22T10:29:15;102079.63;;;17.44;57.10
23281;BME280;11809;56.390;-3.266;2023-05-22T10:34:30;102083.84;;;17.48;57.19
23281;BME280;11809;56.390;-3.266;2023-05-22T10:40:13;102083.59;;;17.54;58.46
23281;BME280;11809;56.390;-3.266;2023-05-22T10:42:45;102089.69;;;17.56;58.49
23281;BME280;11809;56.390;-3.266;2023-05-22T10:45:13;102089.44;;;17.63;58.80
23281;BME280;11809;56.390;-3.266;2023-05-22T10:47:41;102091.03;;;17.67;58.98
23281;BME280;11809;56.390;-3.266;2023-05-22T10:50:10;102092.59;;;17.71;58.94
23281;BME280;11809;56.390;-3.266;2023-05-22T10:52:38;102089.78;;;17.74;59.16
23281;BME280;11809;56.390;-3.266;2023-05-22T10:55:09;102086.13;;;17.76;58.84
23281;BME280;11809;56.390;-3.266;2023-05-22T10:57:38;102086.91;;;17.78;59.13
23281;BME280;11809;56.390;-3.266;2023-05-22T11:00:16;102089.50;;;17.80;59.00
23281;BME280;11809;56.390;-3.266;2023-05-22T11:02:45;102095.63;;;17.82;59.17
23281;BME280;11809;56.390;-3.266;2023-05-22T11:07:51;102094.53;;;17.86;59.23
23281;BME280;11809;56.390;-3.266;2023-05-22T11:10:25;102092.69;;;17.88;59.18
23281;BME280;11809;56.390;-3.266;2023-05-22T11:13:10;102087.22;;;17.91;59.04
23281;BME280;11809;56.390;-3.266;2023-05-22T11:15:43;102086.25;;;17.92;59.33
23281;BME280;11809;56.390;-3.266;2023-05-22T11:18:11;102084.56;;;17.91;59.13
23281;BME280;11809;56.390;-3.266;2023-05-22T11:20:40;102092.22;;;17.78;58.95
23281;BME280;11809;56.390;-3.266;2023-05-22T11:23:09;102086.84;;;17.80;58.78
23281;BME280;11809;56.390;-3.266;2023-05-22T11:25:39;102083.59;;;17.73;58.73
23281;BME280;11809;56.390;-3.266;2023-05-22T11:28:07;102092.81;;;17.66;58.80
23281;BME280;11809;56.390;-3.266;2023-05-22T11:30:36;102098.19;;;17.65;58.87
23281;BME280;11809;56.390;-3.266;2023-05-22T11:33:04;102100.19;;;17.60;58.42
23281;BME280;11809;56.390;-3.266;2023-05-22T11:35:35;102101.28;;;17.55;58.56
23281;BME280;11809;56.390;-3.266;2023-05-22T11:38:04;102114.56;;;17.55;59.17
23281;BME280;11809;56.390;-3.266;2023-05-22T11:40:34;102115.28;;;17.59;59.75
23281;BME280;11809;56.390;-3.266;2023-05-22T11:43:01;102108.41;;;17.74;59.91
23281;BME280;11809;56.390;-3.266;2023-05-22T11:45:30;102111.06;;;17.74;59.70
23281;BME280;11809;56.390;-3.266;2023-05-22T11:47:57;102110.34;;;17.70;59.66
23281;BME280;11809;56.390;-3.266;2023-05-22T11:50:25;102106.75;;;17.71;59.49
23281;BME280;11809;56.390;-3.266;2023-05-22T11:53:09;102097.00;;;17.72;59.64
23281;BME280;11809;56.390;-3.266;2023-05-22T11:55:36;102098.56;;;17.76;59.80
23281;BME280;11809;56.390;-3.266;2023-05-22T11:58:03;102108.28;;;17.77;60.07
23281;BME280;11809;56.390;-3.266;2023-05-22T12:00:31;102109.28;;;17.74;59.82
23281;BME280;11809;56.390;-3.266;2023-05-22T12:02:59;102102.16;;;17.75;59.88
23281;BME280;11809;56.390;-3.266;2023-05-22T12:05:26;102107.81;;;17.86;59.49
23281;BME280;11809;56.390;-3.266;2023-05-22T12:07:53;102097.19;;;17.86;59.44
23281;BME280;11809;56.390;-3.266;2023-05-22T12:10:20;102089.19;;;17.86;59.64
23281;BME280;11809;56.390;-3.266;2023-05-22T12:12:48;102085.47;;;17.90;59.72
23281;BME280;11809;56.390;-3.266;2023-05-22T12:15:18;102097.84;;;17.91;59.94
23281;BME280;11809;56.390;-3.266;2023-05-22T12:17:46;102095.09;;;17.92;59.60
23281;BME280;11809;56.390;-3.266;2023-05-22T12:20:14;102091.53;;;17.93;59.36
23281;BME280;11809;56.390;-3.266;2023-05-22T12:22:44;102102.00;;;17.96;60.02
23281;BME280;11809;56.390;-3.266;2023-05-22T12:25:15;102092.22;;;17.97;59.55
23281;BME280;11809;56.390;-3.266;2023-05-22T12:27:46;102091.34;;;17.96;59.40
23281;BME280;11809;56.390;-3.266;2023-05-22T12:30:14;102088.50;;;18.01;59.53
23281;BME280;11809;56.390;-3.266;2023-05-22T12:32:49;102089.13;;;18.06;59.24
23281;BME280;11809;56.390;-3.266;2023-05-22T12:35:17;102092.19;;;18.15;59.63
23281;BME280;11809;56.390;-3.266;2023-05-22T12:37:50;102104.44;;;18.20;59.93
23281;BME280;11809;56.390;-3.266;2023-05-22T12:40:18;102106.06;;;18.22;59.70
23281;BME280;11809;56.390;-3.266;2023-05-22T12:42:46;102101.81;;;18.18;59.22
23281;BME280;11809;56.390;-3.266;2023-05-22T12:45:13;102109.91;;;18.16;58.85
23281;BME280;11809;56.390;-3.266;2023-05-22T12:47:41;102106.66;;;18.10;58.80
23281;BME280;11809;56.390;-3.266;2023-05-22T12:50:08;102095.38;;;18.05;58.60
23281;BME280;11809;56.390;-3.266;2023-05-22T12:52:35;102099.91;;;18.03;58.41
23281;BME280;11809;56.390;-3.266;2023-05-22T12:55:03;102103.66;;;17.99;58.19
23281;BME280;11809;56.390;-3.266;2023-05-22T12:57:30;102108.19;;;17.97;58.41
23281;BME280;11809;56.390;-3.266;2023-05-22T12:59:57;102126.00;;;17.95;58.54
23281;BME280;11809;56.390;-3.266;2023-05-22T13:02:24;102118.97;;;17.94;58.77
23281;BME280;11809;56.390;-3.266;2023-05-22T13:04:51;102109.00;;;17.99;59.05
23281;BME280;11809;56.390;-3.266;2023-05-22T13:07:19;102107.13;;;18.01;58.94
23281;BME280;11809;56.390;-3.266;2023-05-22T13:09:46;102104.81;;;18.12;58.72